sensor_id;sensor_type;location;lat;lon;timestamp;P1;durP1;ratioP1;P2;durP2;ratioP2
4313;SDS011;2170;48.794;9.182;2022-10-04T00:00:50;13.83;;;11.60;;
4313;SDS011;2170;48.794;9.182;2022-10-04T00:03:26;12.87;;;11.33;;
4313;SDS011;2170;48.794;9.182;2022-10-04T00:05:54;12.83;;;10.47;;
4313;SDS011;2170;48.794;9.182;2022-10-04T00:08:23;12.97;;;11.20;;
4313;SDS011;2170;48.794;9.182;2022-10-04T00:11:00;12.10;;;11.00;;
4313;SDS011;2170;48.794;9.182;2022-10-04T00:13:29;13.03;;;11.57;;
4313;SDS011;2170;48.794;9.182;2022-10-04T00:15:56;12.20;;;10.90;;
4313;SDS011;2170;48.794;9.182;2022-10-04T00:18:26;13.00;;;11.70;;
4313;SDS011;2170;48.794;9.182;2022-10-04T00:20:56;12.73;;;11.43;;
4313;SDS011;2170;48.794;9.182;2022-10-04T00:23:24;14.80;;;11.70;;
4313;SDS011;2170;48.794;9.182;2022-10-04T00:25:53;12.50;;;11.20;;
4313;SDS011;2170;48.794;9.182;2022-10-04T00:28:30;13.13;;;11.80;;
4313;SDS011;2170;48.794;9.182;2022-10-04T00:31:09;14.23;;;11.47;;
4313;SDS011;2170;48.794;9.182;2022-10-04T00:33:36;21.07;;;12.80;;
4313;SDS011;2170;48.794;9.182;2022-10-04T00:39:00;13.03;;;11.70;;
4313;SDS011;2170;48.794;9.182;2022-10-04T00:41:28;12.43;;;11.13;;
4313;SDS011;2170;48.794;9.182;2022-10-04T00:44:01;15.27;;;12.13;;
4313;SDS011;2170;48.794;9.182;2022-10-04T00:46:30;12.80;;;11.50;;
4313;SDS011;2170;48.794;9.182;2022-10-04T00:48:57;14.33;;;12.27;;
4313;SDS011;2170;48.794;9.182;2022-10-04T00:51:26;13.87;;;12.20;;
4313;SDS011;2170;48.794;9.182;2022-10-04T00:53:58;14.43;;;11.47;;
4313;SDS011;2170;48.794;9.182;2022-10-04T00:56:29;17.63;;;12.57;;
4313;SDS011;2170;48.794;9.182;2022-10-04T00:59:04;14.33;;;12.30;;
4313;SDS011;2170;48.794;9.182;2022-10-04T01:01:34;14.37;;;12.50;;
4313;SDS011;2170;48.794;9.182;2022-10-04T01:04:03;13.80;;;12.40;;
4313;SDS011;2170;48.794;9.182;2022-10-04T01:06:32;14.80;;;12.77;;
4313;SDS011;2170;48.794;9.182;2022-10-04T01:09:01;12.90;;;11.17;;
4313;SDS011;2170;48.794;9.182;2022-10-04T01:11:30;14.50;;;12.90;;
4313;SDS011;2170;48.794;9.182;2022-10-04T01:14:01;19.07;;;13.27;;
4313;SDS011;2170;48.794;9.182;2022-10-04T01:16:32;13.47;;;11.80;;
4313;SDS011;2170;48.794;9.182;2022-10-04T01:19:14;13.40;;;12.00;;
4313;SDS011;2170;48.794;9.182;2022-10-04T01:21:45;13.43;;;11.60;;
4313;SDS011;2170;48.794;9.182;2022-10-04T01:24:18;14.60;;;12.73;;
4313;SDS011;2170;48.794;9.182;2022-10-04T01:26:48;14.07;;;12.70;;
4313;SDS011;2170;48.794;9.182;2022-10-04T01:29:16;14.27;;;12.87;;
4313;SDS011;2170;48.794;9.182;2022-10-04T01:31:44;15.40;;;13.20;;
4313;SDS011;2170;48.794;9.182;2022-10-04T01:34:12;17.37;;;12.73;;
4313;SDS011;2170;48.794;9.182;2022-10-04T01:36:39;13.37;;;12.07;;
4313;SDS011;2170;48.794;9.182;2022-10-04T01:39:07;17.20;;;11.80;;
4313;SDS011;2170;48.794;9.182;2022-10-04T01:41:41;13.77;;;12.33;;
4313;SDS011;2170;48.794;9.182;2022-10-04T01:44:11;17.83;;;12.17;;
4313;SDS011;2170;48.794;9.182;2022-10-04T01:46:42;15.90;;;12.70;;
4313;SDS011;2170;48.794;9.182;2022-10-04T01:49:10;13.73;;;12.33;;
4313;SDS011;2170;48.794;9.182;2022-10-04T01:51:42;14.10;;;12.10;;
4313;SDS011;2170;48.794;9.182;2022-10-04T01:54:11;13.20;;;11.90;;
4313;SDS011;2170;48.794;9.182;2022-10-04T01:56:42;13.57;;;12.17;;
4313;SDS011;2170;48.794;9.182;2022-10-04T01:59:12;14.70;;;12.07;;
4313;SDS011;2170;48.794;9.182;2022-10-04T02:01:42;13.30;;;11.90;;
4313;SDS011;2170;48.794;9.182;2022-10-04T02:04:12;16.90;;;12.20;;
4313;SDS011;2170;48.794;9.182;2022-10-04T02:06:41;15.37;;;12.77;;
4313;SDS011;2170;48.794;9.182;2022-10-04T02:09:10;15.60;;;13.23;;
4313;SDS011;2170;48.794;9.182;2022-10-04T02:11:38;13.17;;;11.87;;
4313;SDS011;2170;48.794;9.182;2022-10-04T02:14:11;14.03;;;12.53;;
4313;SDS011;2170;48.794;9.182;2022-10-04T02:16:40;15.40;;;13.63;;
4313;SDS011;2170;48.794;9.182;2022-10-04T02:19:08;13.87;;;12.50;;
4313;SDS011;2170;48.794;9.182;2022-10-04T02:21:36;14.13;;;11.70;;
4313;SDS011;2170;48.794;9.182;2022-10-04T02:24:04;12.90;;;11.70;;
4313;SDS011;2170;48.794;9.182;2022-10-04T02:26:32;13.30;;;11.70;;
4313;SDS011;2170;48.794;9.182;2022-10-04T02:28:59;15.07;;;13.47;;
4313;SDS011;2170;48.794;9.182;2022-10-04T02:31:28;13.73;;;12.33;;
4313;SDS011;2170;48.794;9.182;2022-10-04T02:34:15;14.77;;;12.57;;
4313;SDS011;2170;48.794;9.182;2022-10-04T02:36:43;15.77;;;13.20;;
4313;SDS011;2170;48.794;9.182;2022-10-04T02:39:12;14.27;;;12.87;;
4313;SDS011;2170;48.794;9.182;2022-10-04T02:41:42;14.33;;;12.87;;
4313;SDS011;2170;48.794;9.182;2022-10-04T02:44:10;13.83;;;12.30;;
4313;SDS011;2170;48.794;9.182;2022-10-04T02:46:43;13.30;;;11.60;;
4313;SDS011;2170;48.794;9.182;2022-10-04T02:49:17;14.43;;;12.60;;
4313;SDS011;2170;48.794;9.182;2022-10-04T02:51:47;15.40;;;13.43;;
4313;SDS011;2170;48.794;9.182;2022-10-04T02:54:26;14.73;;;13.20;;
4313;SDS011;2170;48.794;9.182;2022-10-04T02:56:54;15.40;;;12.70;;
4313;SDS011;2170;48.794;9.182;2022-10-04T02:59:22;13.43;;;12.10;;
4313;SDS011;2170;48.794;9.182;2022-10-04T03:01:51;13.77;;;12.30;;
4313;SDS011;2170;48.794;9.182;2022-10-04T03:04:19;16.10;;;12.07;;
4313;SDS011;2170;48.794;9.182;2022-10-04T03:06:47;18.47;;;13.57;;
4313;SDS011;2170;48.794;9.182;2022-10-04T03:09:15;16.20;;;13.40;;
4313;SDS011;2170;48.794;9.182;2022-10-04T03:11:43;16.23;;;12.90;;
4313;SDS011;2170;48.794;9.182;2022-10-04T03:14:11;15.93;;;12.90;;
4313;SDS011;2170;48.794;9.182;2022-10-04T03:16:39;13.73;;;12.30;;
4313;SDS011;2170;48.794;9.182;2022-10-04T03:19:09;13.57;;;12.17;;
4313;SDS011;2170;48.794;9.182;2022-10-04T03:21:37;13.93;;;12.53;;
4313;SDS011;2170;48.794;9.182;2022-10-04T03:24:05;14.13;;;12.63;;
4313;SDS011;2170;48.794;9.182;2022-10-04T03:26:34;14.90;;;11.40;;
4313;SDS011;2170;48.794;9.182;2022-10-04T03:29:04;13.60;;;12.20;;
4313;SDS011;2170;48.794;9.182;2022-10-04T03:31:35;12.67;;;11.47;;
4313;SDS011;2170;48.794;9.182;2022-10-04T03:34:03;14.67;;;12.40;;
4313;SDS011;2170;48.794;9.182;2022-10-04T03:36:32;21.93;;;13.83;;
4313;SDS011;2170;48.794;9.182;2022-10-04T03:39:00;13.60;;;12.30;;
4313;SDS011;2170;48.794;9.182;2022-10-04T03:41:33;14.27;;;11.73;;
4313;SDS011;2170;48.794;9.182;2022-10-04T03:44:03;14.23;;;12.20;;
4313;SDS011;2170;48.794;9.182;2022-10-04T03:46:32;13.57;;;12.07;;
4313;SDS011;2170;48.794;9.182;2022-10-04T03:49:00;14.67;;;12.27;;
4313;SDS011;2170;48.794;9.182;2022-10-04T03:51:27;14.67;;;12.03;;
4313;SDS011;2170;48.794;9.182;2022-10-04T03:53:56;13.10;;;11.70;;
4313;SDS011;2170;48.794;9.182;2022-10-04T03:56:25;11.83;;;10.63;;
4313;SDS011;2170;48.794;9.182;2022-10-04T03:58:53;18.67;;;12.47;;
4313;SDS011;2170;48.794;9.182;2022-10-04T04:01:27;16.07;;;12.53;;
4313;SDS011;2170;48.794;9.182;2022-10-04T04:03:59;12.60;;;11.30;;
4313;SDS011;2170;48.794;9.182;2022-10-04T04:06:28;12.37;;;11.10;;
4313;SDS011;2170;48.794;9.182;2022-10-04T04:08:59;12.97;;;11.77;;
4313;SDS011;2170;48.794;9.182;2022-10-04T04:11:27;13.00;;;11.70;;
4313;SDS011;2170;48.794;9.182;2022-10-04T04:13:57;12.77;;;11.47;;
4313;SDS011;2170;48.794;9.182;2022-10-04T04:16:27;14.20;;;12.80;;
4313;SDS011;2170;48.794;9.182;2022-10-04T04:18:55;13.50;;;12.10;;
4313;SDS011;2170;48.794;9.182;2022-10-04T04:21:24;13.43;;;12.13;;
4313;SDS011;2170;48.794;9.182;2022-10-04T04:23:52;12.50;;;10.90;;
4313;SDS011;2170;48.794;9.182;2022-10-04T04:26:24;12.57;;;11.27;;
4313;SDS011;2170;48.794;9.182;2022-10-04T04:28:52;14.53;;;12.90;;
4313;SDS011;2170;48.794;9.182;2022-10-04T04:31:23;16.90;;;11.83;;
4313;SDS011;2170;48.794;9.182;2022-10-04T04:33:53;15.37;;;12.63;;
4313;SDS011;2170;48.794;9.182;2022-10-04T04:36:23;18.20;;;13.27;;
4313;SDS011;2170;48.794;9.182;2022-10-04T04:38:50;14.67;;;12.80;;
4313;SDS011;2170;48.794;9.182;2022-10-04T04:41:33;12.33;;;11.03;;
4313;SDS011;2170;48.794;9.182;2022-10-04T04:44:00;12.70;;;11.40;;
4313;SDS011;2170;48.794;9.182;2022-10-04T04:46:27;13.17;;;11.70;;
4313;SDS011;2170;48.794;9.182;2022-10-04T04:48:56;15.33;;;11.70;;
4313;SDS011;2170;48.794;9.182;2022-10-04T04:51:25;13.50;;;12.10;;
4313;SDS011;2170;48.794;9.182;2022-10-04T04:53:52;13.57;;;12.03;;
4313;SDS011;2170;48.794;9.182;2022-10-04T04:56:21;13.70;;;12.20;;
4313;SDS011;2170;48.794;9.182;2022-10-04T04:58:51;13.23;;;11.43;;
4313;SDS011;2170;48.794;9.182;2022-10-04T05:01:20;14.07;;;12.20;;
4313;SDS011;2170;48.794;9.182;2022-10-04T05:03:58;13.30;;;11.90;;
4313;SDS011;2170;48.794;9.182;2022-10-04T05:06:26;12.27;;;10.93;;
4313;SDS011;2170;48.794;9.182;2022-10-04T05:08:54;14.73;;;12.23;;
4313;SDS011;2170;48.794;9.182;2022-10-04T05:11:21;18.60;;;13.77;;
4313;SDS011;2170;48.794;9.182;2022-10-04T05:13:53;14.37;;;12.10;;
4313;SDS011;2170;48.794;9.182;2022-10-04T05:16:23;13.67;;;11.53;;
4313;SDS011;2170;48.794;9.182;2022-10-04T05:18:53;15.73;;;11.90;;
4313;SDS011;2170;48.794;9.182;2022-10-04T05:21:22;12.50;;;11.40;;
4313;SDS011;2170;48.794;9.182;2022-10-04T05:23:51;12.63;;;11.33;;
4313;SDS011;2170;48.794;9.182;2022-10-04T05:26:23;12.60;;;11.33;;
4313;SDS011;2170;48.794;9.182;2022-10-04T05:28:53;14.80;;;11.53;;
4313;SDS011;2170;48.794;9.182;2022-10-04T05:31:31;15.10;;;12.10;;
4313;SDS011;2170;48.794;9.182;2022-10-04T05:34:00;13.43;;;12.23;;
4313;SDS011;2170;48.794;9.182;2022-10-04T05:39:19;12.70;;;11.40;;
4313;SDS011;2170;48.794;9.182;2022-10-04T05:41:50;13.90;;;12.00;;
4313;SDS011;2170;48.794;9.182;2022-10-04T05:44:23;13.17;;;11.93;;
4313;SDS011;2170;48.794;9.182;2022-10-04T05:46:52;14.27;;;12.80;;
4313;SDS011;2170;48.794;9.182;2022-10-04T05:49:20;13.77;;;11.97;;
4313;SDS011;2170;48.794;9.182;2022-10-04T05:51:49;13.47;;;12.10;;
4313;SDS011;2170;48.794;9.182;2022-10-04T05:54:18;12.23;;;11.03;;
4313;SDS011;2170;48.794;9.182;2022-10-04T05:56:59;13.00;;;11.87;;
4313;SDS011;2170;48.794;9.182;2022-10-04T05:59:35;13.53;;;12.20;;
4313;SDS011;2170;48.794;9.182;2022-10-04T06:02:07;12.97;;;11.67;;
4313;SDS011;2170;48.794;9.182;2022-10-04T06:04:54;20.03;;;11.53;;
4313;SDS011;2170;48.794;9.182;2022-10-04T06:07:24;12.53;;;10.90;;
4313;SDS011;2170;48.794;9.182;2022-10-04T06:09:55;19.00;;;11.00;;
4313;SDS011;2170;48.794;9.182;2022-10-04T06:12:27;12.13;;;11.07;;
4313;SDS011;2170;48.794;9.182;2022-10-04T06:15:05;11.93;;;10.80;;
4313;SDS011;2170;48.794;9.182;2022-10-04T06:17:40;11.83;;;10.83;;
4313;SDS011;2170;48.794;9.182;2022-10-04T06:23:11;12.17;;;10.87;;
4313;SDS011;2170;48.794;9.182;2022-10-04T06:25:40;14.70;;;12.37;;
4313;SDS011;2170;48.794;9.182;2022-10-04T06:28:11;13.00;;;11.80;;
4313;SDS011;2170;48.794;9.182;2022-10-04T06:30:47;11.93;;;10.87;;
4313;SDS011;2170;48.794;9.182;2022-10-04T06:33:30;13.57;;;12.23;;
4313;SDS011;2170;48.794;9.182;2022-10-04T06:36:11;12.70;;;11.47;;
4313;SDS011;2170;48.794;9.182;2022-10-04T06:38:52;13.57;;;11.93;;
4313;SDS011;2170;48.794;9.182;2022-10-04T06:41:37;13.23;;;11.83;;
4313;SDS011;2170;48.794;9.182;2022-10-04T06:44:26;15.13;;;12.70;;
4313;SDS011;2170;48.794;9.182;2022-10-04T06:47:03;13.87;;;11.80;;
4313;SDS011;2170;48.794;9.182;2022-10-04T06:49:38;16.30;;;11.60;;
4313;SDS011;2170;48.794;9.182;2022-10-04T06:52:22;14.30;;;12.97;;
4313;SDS011;2170;48.794;9.182;2022-10-04T06:54:58;16.13;;;13.03;;
4313;SDS011;2170;48.794;9.182;2022-10-04T06:57:40;14.40;;;13.00;;
4313;SDS011;2170;48.794;9.182;2022-10-04T07:00:11;12.83;;;11.53;;
4313;SDS011;2170;48.794;9.182;2022-10-04T07:02:41;14.90;;;13.07;;
4313;SDS011;2170;48.794;9.182;2022-10-04T07:05:14;17.63;;;12.53;;
4313;SDS011;2170;48.794;9.182;2022-10-04T07:07:44;14.57;;;12.30;;
4313;SDS011;2170;48.794;9.182;2022-10-04T07:10:28;15.00;;;13.40;;
4313;SDS011;2170;48.794;9.182;2022-10-04T07:15:43;15.30;;;11.33;;
4313;SDS011;2170;48.794;9.182;2022-10-04T07:18:13;13.57;;;11.60;;
4313;SDS011;2170;48.794;9.182;2022-10-04T07:20:41;12.47;;;11.27;;
4313;SDS011;2170;48.794;9.182;2022-10-04T07:23:11;14.50;;;11.47;;
4313;SDS011;2170;48.794;9.182;2022-10-04T07:25:41;12.93;;;11.60;;
4313;SDS011;2170;48.794;9.182;2022-10-04T07:28:10;14.40;;;12.60;;
4313;SDS011;2170;48.794;9.182;2022-10-04T07:30:56;13.57;;;12.17;;
4313;SDS011;2170;48.794;9.182;2022-10-04T07:33:27;15.10;;;12.53;;
4313;SDS011;2170;48.794;9.182;2022-10-04T07:35:59;15.03;;;10.93;;
4313;SDS011;2170;48.794;9.182;2022-10-04T07:38:28;13.10;;;11.23;;
4313;SDS011;2170;48.794;9.182;2022-10-04T07:41:02;17.70;;;12.17;;
4313;SDS011;2170;48.794;9.182;2022-10-04T07:43:32;13.70;;;12.40;;
4313;SDS011;2170;48.794;9.182;2022-10-04T07:46:00;13.10;;;11.70;;
4313;SDS011;2170;48.794;9.182;2022-10-04T07:48:30;14.40;;;12.13;;
4313;SDS011;2170;48.794;9.182;2022-10-04T07:50:58;16.77;;;12.07;;
4313;SDS011;2170;48.794;9.182;2022-10-04T07:53:28;14.37;;;11.90;;
4313;SDS011;2170;48.794;9.182;2022-10-04T07:55:59;13.03;;;11.73;;
4313;SDS011;2170;48.794;9.182;2022-10-04T07:58:30;14.53;;;11.60;;
4313;SDS011;2170;48.794;9.182;2022-10-04T08:01:00;11.30;;;10.20;;
4313;SDS011;2170;48.794;9.182;2022-10-04T08:03:36;13.13;;;11.20;;
4313;SDS011;2170;48.794;9.182;2022-10-04T08:06:10;12.00;;;10.23;;
4313;SDS011;2170;48.794;9.182;2022-10-04T08:08:43;11.20;;;10.10;;
4313;SDS011;2170;48.794;9.182;2022-10-04T08:11:15;10.63;;;9.57;;
4313;SDS011;2170;48.794;9.182;2022-10-04T08:13:52;10.63;;;9.63;;
4313;SDS011;2170;48.794;9.182;2022-10-04T08:16:25;10.97;;;9.87;;
4313;SDS011;2170;48.794;9.182;2022-10-04T08:21:47;10.57;;;9.57;;
4313;SDS011;2170;48.794;9.182;2022-10-04T08:24:18;11.90;;;9.93;;
4313;SDS011;2170;48.794;9.182;2022-10-04T08:26:50;11.63;;;9.43;;
4313;SDS011;2170;48.794;9.182;2022-10-04T08:32:10;9.73;;;8.73;;
4313;SDS011;2170;48.794;9.182;2022-10-04T08:34:47;10.40;;;9.50;;
4313;SDS011;2170;48.794;9.182;2022-10-04T08:37:24;9.93;;;8.93;;
4313;SDS011;2170;48.794;9.182;2022-10-04T08:39:57;9.10;;;8.30;;
4313;SDS011;2170;48.794;9.182;2022-10-04T08:42:45;11.17;;;9.10;;
4313;SDS011;2170;48.794;9.182;2022-10-04T08:48:17;10.37;;;8.87;;
4313;SDS011;2170;48.794;9.182;2022-10-04T08:51:01;10.10;;;9.20;;
4313;SDS011;2170;48.794;9.182;2022-10-04T08:53:38;9.43;;;8.30;;
4313;SDS011;2170;48.794;9.182;2022-10-04T08:56:09;9.43;;;8.60;;
4313;SDS011;2170;48.794;9.182;2022-10-04T08:58:46;10.33;;;9.30;;
4313;SDS011;2170;48.794;9.182;2022-10-04T09:01:22;12.67;;;8.70;;
4313;SDS011;2170;48.794;9.182;2022-10-04T09:04:04;8.63;;;7.70;;
4313;SDS011;2170;48.794;9.182;2022-10-04T09:06:43;8.67;;;7.87;;
4313;SDS011;2170;48.794;9.182;2022-10-04T09:12:07;8.47;;;7.63;;
4313;SDS011;2170;48.794;9.182;2022-10-04T09:14:48;8.70;;;7.03;;
4313;SDS011;2170;48.794;9.182;2022-10-04T09:17:21;9.23;;;7.57;;
4313;SDS011;2170;48.794;9.182;2022-10-04T09:19:52;8.27;;;7.47;;
4313;SDS011;2170;48.794;9.182;2022-10-04T09:22:24;10.40;;;7.37;;
4313;SDS011;2170;48.794;9.182;2022-10-04T09:25:05;9.07;;;7.47;;
4313;SDS011;2170;48.794;9.182;2022-10-04T09:27:48;10.00;;;8.07;;
4313;SDS011;2170;48.794;9.182;2022-10-04T09:30:16;7.97;;;7.27;;
4313;SDS011;2170;48.794;9.182;2022-10-04T09:32:59;7.40;;;6.80;;
4313;SDS011;2170;48.794;9.182;2022-10-04T09:38:32;8.27;;;6.47;;
4313;SDS011;2170;48.794;9.182;2022-10-04T09:44:16;7.47;;;6.30;;
4313;SDS011;2170;48.794;9.182;2022-10-04T09:46:48;6.27;;;5.67;;
4313;SDS011;2170;48.794;9.182;2022-10-04T09:49:21;8.40;;;6.07;;
4313;SDS011;2170;48.794;9.182;2022-10-04T09:52:00;7.80;;;5.50;;
4313;SDS011;2170;48.794;9.182;2022-10-04T09:54:59;7.77;;;6.40;;
4313;SDS011;2170;48.794;9.182;2022-10-04T09:57:32;6.53;;;5.97;;
4313;SDS011;2170;48.794;9.182;2022-10-04T10:00:11;8.80;;;5.73;;
4313;SDS011;2170;48.794;9.182;2022-10-04T10:05:35;9.63;;;5.37;;
4313;SDS011;2170;48.794;9.182;2022-10-04T10:08:12;7.50;;;5.20;;
4313;SDS011;2170;48.794;9.182;2022-10-04T10:10:42;5.77;;;5.20;;
4313;SDS011;2170;48.794;9.182;2022-10-04T10:13:39;5.70;;;4.87;;
4313;SDS011;2170;48.794;9.182;2022-10-04T10:16:22;6.37;;;5.77;;
4313;SDS011;2170;48.794;9.182;2022-10-04T10:18:56;7.17;;;5.00;;
4313;SDS011;2170;48.794;9.182;2022-10-04T10:21:36;5.47;;;4.90;;
4313;SDS011;2170;48.794;9.182;2022-10-04T10:29:58;6.20;;;4.83;;
4313;SDS011;2170;48.794;9.182;2022-10-04T10:32:42;4.33;;;3.87;;
4313;SDS011;2170;48.794;9.182;2022-10-04T10:35:18;4.77;;;4.27;;
4313;SDS011;2170;48.794;9.182;2022-10-04T10:37:56;5.50;;;4.60;;
4313;SDS011;2170;48.794;9.182;2022-10-04T10:40:31;8.20;;;4.80;;
4313;SDS011;2170;48.794;9.182;2022-10-04T10:43:04;6.00;;;4.10;;
4313;SDS011;2170;48.794;9.182;2022-10-04T10:45:46;5.83;;;4.63;;
4313;SDS011;2170;48.794;9.182;2022-10-04T10:48:20;6.80;;;4.77;;
4313;SDS011;2170;48.794;9.182;2022-10-04T10:50:59;5.57;;;4.50;;
4313;SDS011;2170;48.794;9.182;2022-10-04T10:56:22;5.57;;;4.93;;
4313;SDS011;2170;48.794;9.182;2022-10-04T10:58:56;6.87;;;4.30;;
4313;SDS011;2170;48.794;9.182;2022-10-04T11:01:44;5.77;;;4.00;;
4313;SDS011;2170;48.794;9.182;2022-10-04T11:04:24;6.83;;;4.47;;
4313;SDS011;2170;48.794;9.182;2022-10-04T11:07:08;5.47;;;4.97;;
4313;SDS011;2170;48.794;9.182;2022-10-04T11:12:24;5.63;;;4.00;;
4313;SDS011;2170;48.794;9.182;2022-10-04T11:18:06;7.13;;;4.47;;
4313;SDS011;2170;48.794;9.182;2022-10-04T11:23:38;6.90;;;4.20;;
4313;SDS011;2170;48.794;9.182;2022-10-04T11:26:31;6.20;;;4.30;;
4313;SDS011;2170;48.794;9.182;2022-10-04T11:29:07;4.23;;;3.83;;
4313;SDS011;2170;48.794;9.182;2022-10-04T11:34:28;4.90;;;4.00;;
4313;SDS011;2170;48.794;9.182;2022-10-04T11:37:04;5.43;;;4.20;;
4313;SDS011;2170;48.794;9.182;2022-10-04T11:39:44;4.50;;;4.10;;
4313;SDS011;2170;48.794;9.182;2022-10-04T11:42:17;5.90;;;3.93;;
4313;SDS011;2170;48.794;9.182;2022-10-04T11:44:56;5.63;;;4.60;;
4313;SDS011;2170;48.794;9.182;2022-10-04T11:47:40;4.53;;;3.90;;
4313;SDS011;2170;48.794;9.182;2022-10-04T11:50:18;5.50;;;3.90;;
4313;SDS011;2170;48.794;9.182;2022-10-04T11:53:00;6.90;;;3.97;;
4313;SDS011;2170;48.794;9.182;2022-10-04T11:55:34;5.67;;;3.90;;
4313;SDS011;2170;48.794;9.182;2022-10-04T11:58:07;6.10;;;5.50;;
4313;SDS011;2170;48.794;9.182;2022-10-04T12:00:52;21.40;;;19.73;;
4313;SDS011;2170;48.794;9.182;2022-10-04T12:03:29;8.63;;;6.50;;
4313;SDS011;2170;48.794;9.182;2022-10-04T12:06:02;7.73;;;5.10;;
4313;SDS011;2170;48.794;9.182;2022-10-04T12:08:37;8.90;;;5.97;;
4313;SDS011;2170;48.794;9.182;2022-10-04T12:14:14;4.17;;;3.80;;
4313;SDS011;2170;48.794;9.182;2022-10-04T12:19:40;3.40;;;3.10;;
4313;SDS011;2170;48.794;9.182;2022-10-04T12:22:36;7.10;;;3.70;;
4313;SDS011;2170;48.794;9.182;2022-10-04T12:25:22;3.90;;;3.50;;
4313;SDS011;2170;48.794;9.182;2022-10-04T12:28:05;5.20;;;4.70;;
4313;SDS011;2170;48.794;9.182;2022-10-04T12:30:45;5.03;;;3.47;;
4313;SDS011;2170;48.794;9.182;2022-10-04T12:33:17;3.23;;;3.03;;
4313;SDS011;2170;48.794;9.182;2022-10-04T12:35:53;3.83;;;3.10;;
4313;SDS011;2170;48.794;9.182;2022-10-04T12:38:25;4.20;;;3.20;;
4313;SDS011;2170;48.794;9.182;2022-10-04T12:41:02;4.77;;;3.27;;
4313;SDS011;2170;48.794;9.182;2022-10-04T12:43:38;3.43;;;3.10;;
4313;SDS011;2170;48.794;9.182;2022-10-04T12:46:13;4.73;;;3.37;;
4313;SDS011;2170;48.794;9.182;2022-10-04T12:48:46;3.50;;;3.20;;
4313;SDS011;2170;48.794;9.182;2022-10-04T12:54:06;5.90;;;3.33;;
4313;SDS011;2170;48.794;9.182;2022-10-04T12:56:41;6.33;;;3.70;;
4313;SDS011;2170;48.794;9.182;2022-10-04T12:59:30;4.67;;;3.33;;
4313;SDS011;2170;48.794;9.182;2022-10-04T13:02:03;5.33;;;4.30;;
4313;SDS011;2170;48.794;9.182;2022-10-04T13:04:32;4.53;;;3.40;;
4313;SDS011;2170;48.794;9.182;2022-10-04T13:07:09;4.93;;;3.53;;
4313;SDS011;2170;48.794;9.182;2022-10-04T13:09:44;3.80;;;3.50;;
4313;SDS011;2170;48.794;9.182;2022-10-04T13:12:19;3.37;;;2.87;;
4313;SDS011;2170;48.794;9.182;2022-10-04T13:14:52;4.10;;;3.47;;
4313;SDS011;2170;48.794;9.182;2022-10-04T13:17:27;3.83;;;3.60;;
4313;SDS011;2170;48.794;9.182;2022-10-04T13:20:02;3.67;;;2.70;;
4313;SDS011;2170;48.794;9.182;2022-10-04T13:22:41;3.30;;;3.00;;
4313;SDS011;2170;48.794;9.182;2022-10-04T13:25:19;3.23;;;2.80;;
4313;SDS011;2170;48.794;9.182;2022-10-04T13:27:51;4.40;;;4.00;;
4313;SDS011;2170;48.794;9.182;2022-10-04T13:30:20;3.87;;;3.23;;
4313;SDS011;2170;48.794;9.182;2022-10-04T13:32:51;4.83;;;3.50;;
4313;SDS011;2170;48.794;9.182;2022-10-04T13:35:22;4.27;;;3.70;;
4313;SDS011;2170;48.794;9.182;2022-10-04T13:37:54;4.17;;;3.77;;
4313;SDS011;2170;48.794;9.182;2022-10-04T13:40:33;4.33;;;3.23;;
4313;SDS011;2170;48.794;9.182;2022-10-04T13:45:56;2.97;;;2.77;;
4313;SDS011;2170;48.794;9.182;2022-10-04T13:48:29;5.17;;;3.40;;
4313;SDS011;2170;48.794;9.182;2022-10-04T13:51:02;6.50;;;3.90;;
4313;SDS011;2170;48.794;9.182;2022-10-04T13:53:36;5.00;;;3.10;;
4313;SDS011;2170;48.794;9.182;2022-10-04T13:56:43;3.13;;;2.83;;
4313;SDS011;2170;48.794;9.182;2022-10-04T13:59:16;7.20;;;2.83;;
4313;SDS011;2170;48.794;9.182;2022-10-04T14:01:52;3.23;;;3.03;;
4313;SDS011;2170;48.794;9.182;2022-10-04T14:04:31;4.30;;;3.00;;
4313;SDS011;2170;48.794;9.182;2022-10-04T14:07:07;4.63;;;2.80;;
4313;SDS011;2170;48.794;9.182;2022-10-04T14:09:44;3.03;;;2.73;;
4313;SDS011;2170;48.794;9.182;2022-10-04T14:26:30;2.70;;;2.43;;
4313;SDS011;2170;48.794;9.182;2022-10-04T14:29:14;4.83;;;2.90;;
4313;SDS011;2170;48.794;9.182;2022-10-04T14:31:53;5.13;;;2.73;;
4313;SDS011;2170;48.794;9.182;2022-10-04T14:34:31;8.13;;;7.43;;
4313;SDS011;2170;48.794;9.182;2022-10-04T14:37:08;3.50;;;2.63;;
4313;SDS011;2170;48.794;9.182;2022-10-04T14:39:44;3.60;;;3.10;;
4313;SDS011;2170;48.794;9.182;2022-10-04T14:42:21;3.93;;;2.63;;
4313;SDS011;2170;48.794;9.182;2022-10-04T14:44:59;3.17;;;2.87;;
4313;SDS011;2170;48.794;9.182;2022-10-04T14:47:40;5.23;;;3.53;;
4313;SDS011;2170;48.794;9.182;2022-10-04T14:50:17;7.10;;;3.30;;
4313;SDS011;2170;48.794;9.182;2022-10-04T14:52:47;3.00;;;2.80;;
4313;SDS011;2170;48.794;9.182;2022-10-04T14:55:28;5.17;;;3.00;;
4313;SDS011;2170;48.794;9.182;2022-10-04T14:58:04;2.97;;;2.77;;
4313;SDS011;2170;48.794;9.182;2022-10-04T15:00:47;3.50;;;3.20;;
4313;SDS011;2170;48.794;9.182;2022-10-04T15:03:25;3.70;;;2.50;;
4313;SDS011;2170;48.794;9.182;2022-10-04T15:05:58;5.97;;;3.50;;
4313;SDS011;2170;48.794;9.182;2022-10-04T15:08:34;3.17;;;2.97;;
4313;SDS011;2170;48.794;9.182;2022-10-04T15:11:04;2.50;;;2.30;;
4313;SDS011;2170;48.794;9.182;2022-10-04T15:13:34;3.40;;;2.90;;
4313;SDS011;2170;48.794;9.182;2022-10-04T15:16:05;4.20;;;3.27;;
4313;SDS011;2170;48.794;9.182;2022-10-04T15:18:43;3.50;;;2.60;;
4313;SDS011;2170;48.794;9.182;2022-10-04T15:21:19;4.37;;;3.00;;
4313;SDS011;2170;48.794;9.182;2022-10-04T15:23:56;4.20;;;3.00;;
4313;SDS011;2170;48.794;9.182;2022-10-04T15:26:44;4.70;;;2.67;;
4313;SDS011;2170;48.794;9.182;2022-10-04T15:29:18;3.70;;;3.40;;
4313;SDS011;2170;48.794;9.182;2022-10-04T15:31:49;3.53;;;3.00;;
4313;SDS011;2170;48.794;9.182;2022-10-04T15:34:21;3.00;;;2.70;;
4313;SDS011;2170;48.794;9.182;2022-10-04T15:36:58;21.37;;;11.27;;
4313;SDS011;2170;48.794;9.182;2022-10-04T15:39:43;9.40;;;8.20;;
4313;SDS011;2170;48.794;9.182;2022-10-04T15:42:13;7.60;;;6.00;;
4313;SDS011;2170;48.794;9.182;2022-10-04T15:44:56;3.33;;;3.03;;
4313;SDS011;2170;48.794;9.182;2022-10-04T15:47:25;3.57;;;2.80;;
4313;SDS011;2170;48.794;9.182;2022-10-04T15:49:56;5.90;;;3.10;;
4313;SDS011;2170;48.794;9.182;2022-10-04T15:52:39;3.53;;;2.73;;
4313;SDS011;2170;48.794;9.182;2022-10-04T15:55:16;3.37;;;3.10;;
4313;SDS011;2170;48.794;9.182;2022-10-04T16:00:42;5.83;;;3.80;;
4313;SDS011;2170;48.794;9.182;2022-10-04T16:03:14;3.27;;;3.00;;
4313;SDS011;2170;48.794;9.182;2022-10-04T16:05:45;3.60;;;3.30;;
4313;SDS011;2170;48.794;9.182;2022-10-04T16:11:08;4.63;;;3.20;;
4313;SDS011;2170;48.794;9.182;2022-10-04T16:13:44;3.23;;;3.00;;
4313;SDS011;2170;48.794;9.182;2022-10-04T16:16:33;6.67;;;3.73;;
4313;SDS011;2170;48.794;9.182;2022-10-04T16:19:08;3.40;;;3.10;;
4313;SDS011;2170;48.794;9.182;2022-10-04T16:21:36;4.10;;;3.13;;
4313;SDS011;2170;48.794;9.182;2022-10-04T16:27:03;4.83;;;2.70;;
4313;SDS011;2170;48.794;9.182;2022-10-04T16:29:38;3.43;;;3.00;;
4313;SDS011;2170;48.794;9.182;2022-10-04T16:32:14;5.53;;;5.03;;
4313;SDS011;2170;48.794;9.182;2022-10-04T16:34:46;5.03;;;3.77;;
4313;SDS011;2170;48.794;9.182;2022-10-04T16:37:17;5.57;;;4.07;;
4313;SDS011;2170;48.794;9.182;2022-10-04T16:39:51;4.03;;;3.67;;
4313;SDS011;2170;48.794;9.182;2022-10-04T16:42:30;11.93;;;10.73;;
4313;SDS011;2170;48.794;9.182;2022-10-04T16:45:00;4.20;;;3.60;;
4313;SDS011;2170;48.794;9.182;2022-10-04T16:47:29;5.00;;;4.53;;
4313;SDS011;2170;48.794;9.182;2022-10-04T16:49:58;5.10;;;3.50;;
4313;SDS011;2170;48.794;9.182;2022-10-04T16:55:26;16.63;;;10.30;;
4313;SDS011;2170;48.794;9.182;2022-10-04T17:00:42;7.63;;;5.13;;
4313;SDS011;2170;48.794;9.182;2022-10-04T17:03:12;6.63;;;4.70;;
4313;SDS011;2170;48.794;9.182;2022-10-04T17:05:45;7.13;;;4.20;;
4313;SDS011;2170;48.794;9.182;2022-10-04T17:08:19;5.00;;;4.50;;
4313;SDS011;2170;48.794;9.182;2022-10-04T17:11:01;4.60;;;4.20;;